sensor_id;sensor_type;location;lat;lon;timestamp;temperature;humidity
10384;DHT22;5238;43.508;4.980;2023-04-29T00:01:00;18.90;91.30
10384;DHT22;5238;43.508;4.980;2023-04-29T00:03:28;18.80;91.30
10384;DHT22;5238;43.508;4.980;2023-04-29T00:05:57;18.80;91.30
10384;DHT22;5238;43.508;4.980;2023-04-29T00:08:27;18.80;91.30
10384;DHT22;5238;43.508;4.980;2023-04-29T00:10:55;18.80;91.30
10384;DHT22;5238;43.508;4.980;2023-04-29T00:13:22;18.80;91.30
10384;DHT22;5238;43.508;4.980;2023-04-29T00:15:52;18.80;91.30
10384;DHT22;5238;43.508;4.980;2023-04-29T00:18:19;18.70;91.30
10384;DHT22;5238;43.508;4.980;2023-04-29T00:20:49;18.70;91.30
10384;DHT22;5238;43.508;4.980;2023-04-29T00:23:16;18.70;91.30
10384;DHT22;5238;43.508;4.980;2023-04-29T00:25:49;18.70;91.30
10384;DHT22;5238;43.508;4.980;2023-04-29T00:28:21;18.70;91.30
10384;DHT22;5238;43.508;4.980;2023-04-29T00:30:48;18.60;91.30
10384;DHT22;5238;43.508;4.980;2023-04-29T00:33:15;18.60;91.30
10384;DHT22;5238;43.508;4.980;2023-04-29T00:35:42;18.60;91.30
10384;DHT22;5238;43.508;4.980;2023-04-29T00:38:09;18.50;91.30
10384;DHT22;5238;43.508;4.980;2023-04-29T00:40:36;18.50;91.30
10384;DHT22;5238;43.508;4.980;2023-04-29T00:43:03;18.50;91.30
10384;DHT22;5238;43.508;4.980;2023-04-29T00:45:33;18.50;91.30
10384;DHT22;5238;43.508;4.980;2023-04-29T00:48:00;18.50;91.30
10384;DHT22;5238;43.508;4.980;2023-04-29T00:50:29;18.50;91.30
10384;DHT22;5238;43.508;4.980;2023-04-29T00:52:56;18.50;91.30
10384;DHT22;5238;43.508;4.980;2023-04-29T00:55:26;18.50;91.30
10384;DHT22;5238;43.508;4.980;2023-04-29T00:57:58;18.50;91.30
10384;DHT22;5238;43.508;4.980;2023-04-29T01:00:25;18.60;91.30
10384;DHT22;5238;43.508;4.980;2023-04-29T01:03:01;18.50;91.30
10384;DHT22;5238;43.508;4.980;2023-04-29T01:05:30;18.50;91.30
10384;DHT22;5238;43.508;4.980;2023-04-29T01:08:09;18.50;91.30
10384;DHT22;5238;43.508;4.980;2023-04-29T01:10:44;18.50;91.30
10384;DHT22;5238;43.508;4.980;2023-04-29T01:13:17;18.50;91.30
10384;DHT22;5238;43.508;4.980;2023-04-29T01:15:48;18.40;91.30
10384;DHT22;5238;43.508;4.980;2023-04-29T01:18:25;18.40;91.30
10384;DHT22;5238;43.508;4.980;2023-04-29T01:20:52;18.40;91.30
10384;DHT22;5238;43.508;4.980;2023-04-29T01:23:28;18.40;91.30
10384;DHT22;5238;43.508;4.980;2023-04-29T01:25:58;18.40;91.30
10384;DHT22;5238;43.508;4.980;2023-04-29T01:28:37;18.40;91.30
10384;DHT22;5238;43.508;4.980;2023-04-29T01:31:09;18.40;91.30
10384;DHT22;5238;43.508;4.980;2023-04-29T01:33:40;18.40;91.30
10384;DHT22;5238;43.508;4.980;2023-04-29T01:36:19;18.40;91.30
10384;DHT22;5238;43.508;4.980;2023-04-29T01:38:55;18.40;91.30
10384;DHT22;5238;43.508;4.980;2023-04-29T01:41:33;18.40;91.30
10384;DHT22;5238;43.508;4.980;2023-04-29T01:44:02;18.40;91.30
10384;DHT22;5238;43.508;4.980;2023-04-29T01:46:32;18.40;91.30
10384;DHT22;5238;43.508;4.980;2023-04-29T01:49:02;18.40;91.30
10384;DHT22;5238;43.508;4.980;2023-04-29T01:51:29;18.40;91.30
10384;DHT22;5238;43.508;4.980;2023-04-29T01:53:58;18.40;91.30
10384;DHT22;5238;43.508;4.980;2023-04-29T01:56:25;18.40;91.30
10384;DHT22;5238;43.508;4.980;2023-04-29T01:58:55;18.40;91.30
10384;DHT22;5238;43.508;4.980;2023-04-29T02:01:22;18.50;91.30
10384;DHT22;5238;43.508;4.980;2023-04-29T02:03:49;18.50;91.30
10384;DHT22;5238;43.508;4.980;2023-04-29T02:06:19;18.50;91.30
10384;DHT22;5238;43.508;4.980;2023-04-29T02:08:46;18.50;91.30
10384;DHT22;5238;43.508;4.980;2023-04-29T02:11:16;18.50;91.30
10384;DHT22;5238;43.508;4.980;2023-04-29T02:13:45;18.50;91.30
10384;DHT22;5238;43.508;4.980;2023-04-29T02:16:13;18.50;91.30
10384;DHT22;5238;43.508;4.980;2023-04-29T02:18:47;18.50;91.30
10384;DHT22;5238;43.508;4.980;2023-04-29T02:21:23;18.50;91.30
10384;DHT22;5238;43.508;4.980;2023-04-29T02:23:50;18.50;91.30
10384;DHT22;5238;43.508;4.980;2023-04-29T02:26:20;18.50;91.30
10384;DHT22;5238;43.508;4.980;2023-04-29T02:28:51;18.50;91.30
10384;DHT22;5238;43.508;4.980;2023-04-29T02:31:18;18.50;91.30
10384;DHT22;5238;43.508;4.980;2023-04-29T02:33:45;18.50;91.30
10384;DHT22;5238;43.508;4.980;2023-04-29T02:36:11;18.50;91.30
10384;DHT22;5238;43.508;4.980;2023-04-29T02:38:38;18.60;91.30
10384;DHT22;5238;43.508;4.980;2023-04-29T02:41:06;18.50;91.30
10384;DHT22;5238;43.508;4.980;2023-04-29T02:43:34;18.50;91.30
10384;DHT22;5238;43.508;4.980;2023-04-29T02:46:01;18.50;91.30
10384;DHT22;5238;43.508;4.980;2023-04-29T02:48:28;18.50;91.30
10384;DHT22;5238;43.508;4.980;2023-04-29T02:50:57;18.50;91.30
10384;DHT22;5238;43.508;4.980;2023-04-29T02:53:31;18.50;91.30
10384;DHT22;5238;43.508;4.980;2023-04-29T02:56:02;18.50;91.30
10384;DHT22;5238;43.508;4.980;2023-04-29T02:58:29;18.40;91.30
10384;DHT22;5238;43.508;4.980;2023-04-29T03:01:02;18.40;91.30
10384;DHT22;5238;43.508;4.980;2023-04-29T03:03:29;18.30;91.30
10384;DHT22;5238;43.508;4.980;2023-04-29T03:05:56;18.30;91.30
10384;DHT22;5238;43.508;4.980;2023-04-29T03:08:23;18.30;91.30
10384;DHT22;5238;43.508;4.980;2023-04-29T03:10:54;18.30;91.30
10384;DHT22;5238;43.508;4.980;2023-04-29T03:13:20;18.30;91.30
10384;DHT22;5238;43.508;4.980;2023-04-29T03:15:47;18.20;91.30
10384;DHT22;5238;43.508;4.980;2023-04-29T03:18:16;18.20;91.30
10384;DHT22;5238;43.508;4.980;2023-04-29T03:20:43;18.20;91.30
10384;DHT22;5238;43.508;4.980;2023-04-29T03:23:14;18.20;91.30
10384;DHT22;5238;43.508;4.980;2023-04-29T03:25:41;18.20;91.30
10384;DHT22;5238;43.508;4.980;2023-04-29T03:28:10;18.20;91.30
10384;DHT22;5238;43.508;4.980;2023-04-29T03:30:41;18.20;91.30
10384;DHT22;5238;43.508;4.980;2023-04-29T03:33:08;18.20;91.30
10384;DHT22;5238;43.508;4.980;2023-04-29T03:35:36;18.20;91.30
10384;DHT22;5238;43.508;4.980;2023-04-29T03:38:08;18.30;91.30
10384;DHT22;5238;43.508;4.980;2023-04-29T03:40:35;18.30;91.30
10384;DHT22;5238;43.508;4.980;2023-04-29T03:43:02;18.30;91.30
10384;DHT22;5238;43.508;4.980;2023-04-29T03:45:29;18.30;91.30
10384;DHT22;5238;43.508;4.980;2023-04-29T03:47:57;18.30;91.30
10384;DHT22;5238;43.508;4.980;2023-04-29T03:50:24;18.30;91.30
10384;DHT22;5238;43.508;4.980;2023-04-29T03:52:53;18.30;91.30
10384;DHT22;5238;43.508;4.980;2023-04-29T03:55:20;18.30;91.30
10384;DHT22;5238;43.508;4.980;2023-04-29T03:57:50;18.30;91.30
10384;DHT22;5238;43.508;4.980;2023-04-29T04:00:17;18.30;91.30
10384;DHT22;5238;43.508;4.980;2023-04-29T04:02:46;18.40;91.30
10384;DHT22;5238;43.508;4.980;2023-04-29T04:05:13;18.40;91.30
10384;DHT22;5238;43.508;4.980;2023-04-29T04:07:40;18.40;91.30
10384;DHT22;5238;43.508;4.980;2023-04-29T04:10:10;18.40;91.30
10384;DHT22;5238;43.508;4.980;2023-04-29T04:12:37;18.40;91.30
10384;DHT22;5238;43.508;4.980;2023-04-29T04:15:07;18.40;91.30
10384;DHT22;5238;43.508;4.980;2023-04-29T04:17:35;18.40;91.30
10384;DHT22;5238;43.508;4.980;2023-04-29T04:20:03;18.40;91.30
10384;DHT22;5238;43.508;4.980;2023-04-29T04:22:40;18.50;91.30
10384;DHT22;5238;43.508;4.980;2023-04-29T04:25:10;18.50;91.30
10384;DHT22;5238;43.508;4.980;2023-04-29T04:27:37;18.50;91.30
10384;DHT22;5238;43.508;4.980;2023-04-29T04:30:05;18.50;91.30
10384;DHT22;5238;43.508;4.980;2023-04-29T04:32:34;18.50;91.30
10384;DHT22;5238;43.508;4.980;2023-04-29T04:35:05;18.40;91.30
10384;DHT22;5238;43.508;4.980;2023-04-29T04:37:32;18.40;91.30
10384;DHT22;5238;43.508;4.980;2023-04-29T04:39:59;18.40;91.30
10384;DHT22;5238;43.508;4.980;2023-04-29T04:42:28;18.40;91.30
10384;DHT22;5238;43.508;4.980;2023-04-29T04:44:58;18.40;91.30
10384;DHT22;5238;43.508;4.980;2023-04-29T04:47:25;18.50;91.30
10384;DHT22;5238;43.508;4.980;2023-04-29T04:49:56;18.50;91.30
10384;DHT22;5238;43.508;4.980;2023-04-29T04:52:25;18.50;91.30
10384;DHT22;5238;43.508;4.980;2023-04-29T04:54:52;18.40;91.30
10384;DHT22;5238;43.508;4.980;2023-04-29T04:57:24;18.40;91.30
10384;DHT22;5238;43.508;4.980;2023-04-29T04:59:57;18.40;91.30
10384;DHT22;5238;43.508;4.980;2023-04-29T05:02:24;18.40;91.30
10384;DHT22;5238;43.508;4.980;2023-04-29T05:04:51;18.40;91.30
10384;DHT22;5238;43.508;4.980;2023-04-29T05:07:18;18.40;91.30
10384;DHT22;5238;43.508;4.980;2023-04-29T05:09:47;18.40;91.30
10384;DHT22;5238;43.508;4.980;2023-04-29T05:12:15;18.40;91.30
10384;DHT22;5238;43.508;4.980;2023-04-29T05:14:44;18.50;91.30
10384;DHT22;5238;43.508;4.980;2023-04-29T05:17:15;18.50;91.30
10384;DHT22;5238;43.508;4.980;2023-04-29T05:19:42;18.50;91.30
10384;DHT22;5238;43.508;4.980;2023-04-29T05:22:14;18.60;91.30
10384;DHT22;5238;43.508;4.980;2023-04-29T05:24:43;18.60;91.30
10384;DHT22;5238;43.508;4.980;2023-04-29T05:27:10;18.60;91.30
10384;DHT22;5238;43.508;4.980;2023-04-29T05:29:41;18.60;91.30
10384;DHT22;5238;43.508;4.980;2023-04-29T05:32:11;18.60;91.30
10384;DHT22;5238;43.508;4.980;2023-04-29T05:34:41;18.70;91.30
10384;DHT22;5238;43.508;4.980;2023-04-29T05:37:10;18.70;91.30
10384;DHT22;5238;43.508;4.980;2023-04-29T05:39:38;18.80;91.30
10384;DHT22;5238;43.508;4.980;2023-04-29T05:42:07;18.80;91.30
10384;DHT22;5238;43.508;4.980;2023-04-29T05:44:34;18.80;91.30
10384;DHT22;5238;43.508;4.980;2023-04-29T05:47:04;18.90;91.30
10384;DHT22;5238;43.508;4.980;2023-04-29T05:49:35;18.90;91.30
10384;DHT22;5238;43.508;4.980;2023-04-29T05:52:11;19.00;91.30
10384;DHT22;5238;43.508;4.980;2023-04-29T05:54:41;19.00;91.30
10384;DHT22;5238;43.508;4.980;2023-04-29T05:57:14;19.00;91.30
10384;DHT22;5238;43.508;4.980;2023-04-29T05:59:47;18.90;91.30
10384;DHT22;5238;43.508;4.980;2023-04-29T06:02:18;19.00;91.30
10384;DHT22;5238;43.508;4.980;2023-04-29T06:04:45;19.00;91.30
10384;DHT22;5238;43.508;4.980;2023-04-29T06:07:13;19.00;91.30
10384;DHT22;5238;43.508;4.980;2023-04-29T06:09:41;19.10;91.30
10384;DHT22;5238;43.508;4.980;2023-04-29T06:12:12;19.10;91.30
10384;DHT22;5238;43.508;4.980;2023-04-29T06:14:45;19.20;91.30
10384;DHT22;5238;43.508;4.980;2023-04-29T06:17:16;19.30;91.30
10384;DHT22;5238;43.508;4.980;2023-04-29T06:19:46;19.30;91.30
10384;DHT22;5238;43.508;4.980;2023-04-29T06:22:17;19.40;91.30
10384;DHT22;5238;43.508;4.980;2023-04-29T06:24:44;19.40;91.30
10384;DHT22;5238;43.508;4.980;2023-04-29T06:27:11;19.50;91.30
10384;DHT22;5238;43.508;4.980;2023-04-29T06:29:38;19.50;91.30
10384;DHT22;5238;43.508;4.980;2023-04-29T06:32:05;19.60;91.30
10384;DHT22;5238;43.508;4.980;2023-04-29T06:34:34;19.70;91.30
10384;DHT22;5238;43.508;4.980;2023-04-29T06:37:06;19.70;91.30
10384;DHT22;5238;43.508;4.980;2023-04-29T06:39:36;19.70;91.30
10384;DHT22;5238;43.508;4.980;2023-04-29T06:42:04;19.70;91.30
10384;DHT22;5238;43.508;4.980;2023-04-29T06:44:39;19.80;91.30
10384;DHT22;5238;43.508;4.980;2023-04-29T06:47:10;19.80;91.30
10384;DHT22;5238;43.508;4.980;2023-04-29T06:49:41;19.80;91.30
10384;DHT22;5238;43.508;4.980;2023-04-29T06:52:17;19.80;91.30
10384;DHT22;5238;43.508;4.980;2023-04-29T06:55:04;19.80;91.30
10384;DHT22;5238;43.508;4.980;2023-04-29T06:57:31;19.90;91.30
10384;DHT22;5238;43.508;4.980;2023-04-29T07:00:03;19.90;91.30
10384;DHT22;5238;43.508;4.980;2023-04-29T07:02:30;19.90;91.30
10384;DHT22;5238;43.508;4.980;2023-04-29T07:04:59;20.00;91.30
10384;DHT22;5238;43.508;4.980;2023-04-29T07:07:48;20.10;91.30
10384;DHT22;5238;43.508;4.980;2023-04-29T07:10:24;20.10;91.30
10384;DHT22;5238;43.508;4.980;2023-04-29T07:12:55;20.20;91.30
10384;DHT22;5238;43.508;4.980;2023-04-29T07:15:23;20.20;91.30
10384;DHT22;5238;43.508;4.980;2023-04-29T07:17:53;20.30;91.30
10384;DHT22;5238;43.508;4.980;2023-04-29T07:20:21;20.40;91.30
10384;DHT22;5238;43.508;4.980;2023-04-29T07:22:52;20.50;91.30
10384;DHT22;5238;43.508;4.980;2023-04-29T07:25:20;20.60;91.30
10384;DHT22;5238;43.508;4.980;2023-04-29T07:27:56;20.70;91.30
10384;DHT22;5238;43.508;4.980;2023-04-29T07:30:23;20.80;91.30
10384;DHT22;5238;43.508;4.980;2023-04-29T07:32:51;20.90;91.30
10384;DHT22;5238;43.508;4.980;2023-04-29T07:35:18;21.00;91.30
10384;DHT22;5238;43.508;4.980;2023-04-29T07:37:46;21.10;91.30
10384;DHT22;5238;43.508;4.980;2023-04-29T07:40:21;21.30;91.30
10384;DHT22;5238;43.508;4.980;2023-04-29T07:42:55;21.40;91.30
10384;DHT22;5238;43.508;4.980;2023-04-29T07:45:26;21.50;91.30
10384;DHT22;5238;43.508;4.980;2023-04-29T07:48:02;21.70;91.30
10384;DHT22;5238;43.508;4.980;2023-04-29T07:50:34;21.80;91.30
10384;DHT22;5238;43.508;4.980;2023-04-29T07:53:06;21.90;91.30
10384;DHT22;5238;43.508;4.980;2023-04-29T07:55:36;22.10;91.30
10384;DHT22;5238;43.508;4.980;2023-04-29T07:58:03;22.60;91.30
10384;DHT22;5238;43.508;4.980;2023-04-29T08:00:30;23.00;91.30
10384;DHT22;5238;43.508;4.980;2023-04-29T08:02:58;23.40;91.30
10384;DHT22;5238;43.508;4.980;2023-04-29T08:05:26;23.80;91.30
10384;DHT22;5238;43.508;4.980;2023-04-29T08:07:53;24.10;91.30
10384;DHT22;5238;43.508;4.980;2023-04-29T08:10:20;24.50;91.30
10384;DHT22;5238;43.508;4.980;2023-04-29T08:12:51;24.90;91.30
10384;DHT22;5238;43.508;4.980;2023-04-29T08:15:21;25.10;91.30
10384;DHT22;5238;43.508;4.980;2023-04-29T08:17:53;25.30;91.30
10384;DHT22;5238;43.508;4.980;2023-04-29T08:20:22;25.50;91.30
10384;DHT22;5238;43.508;4.980;2023-04-29T08:22:57;25.70;91.30
10384;DHT22;5238;43.508;4.980;2023-04-29T08:25:25;26.00;91.30
10384;DHT22;5238;43.508;4.980;2023-04-29T08:27:55;26.30;91.30
10384;DHT22;5238;43.508;4.980;2023-04-29T08:30:22;26.40;91.30
10384;DHT22;5238;43.508;4.980;2023-04-29T08:32:51;26.60;91.30
10384;DHT22;5238;43.508;4.980;2023-04-29T08:35:18;27.00;91.30
10384;DHT22;5238;43.508;4.980;2023-04-29T08:37:45;27.30;91.30
10384;DHT22;5238;43.508;4.980;2023-04-29T08:40:12;27.80;91.30
10384;DHT22;5238;43.508;4.980;2023-04-29T08:42:39;28.20;91.30
10384;DHT22;5238;43.508;4.980;2023-04-29T08:45:12;28.60;91.30
10384;DHT22;5238;43.508;4.980;2023-04-29T08:47:47;28.90;91.30
10384;DHT22;5238;43.508;4.980;2023-04-29T08:50:29;29.30;91.30
10384;DHT22;5238;43.508;4.980;2023-04-29T08:52:57;29.50;91.30
10384;DHT22;5238;43.508;4.980;2023-04-29T08:55:26;29.60;91.30
10384;DHT22;5238;43.508;4.980;2023-04-29T08:57:56;29.60;91.30
10384;DHT22;5238;43.508;4.980;2023-04-29T09:00:27;29.70;91.30
10384;DHT22;5238;43.508;4.980;2023-04-29T09:02:56;29.80;91.30
10384;DHT22;5238;43.508;4.980;2023-04-29T09:05:25;30.10;91.30
10384;DHT22;5238;43.508;4.980;2023-04-29T09:07:56;30.40;91.30
10384;DHT22;5238;43.508;4.980;2023-04-29T09:10:31;30.80;91.30
10384;DHT22;5238;43.508;4.980;2023-04-29T09:12:58;31.00;91.30
10384;DHT22;5238;43.508;4.980;2023-04-29T09:15:26;31.00;91.30
10384;DHT22;5238;43.508;4.980;2023-04-29T09:17:53;31.20;91.30
10384;DHT22;5238;43.508;4.980;2023-04-29T09:20:28;31.40;91.30
10384;DHT22;5238;43.508;4.980;2023-04-29T09:22:59;31.50;91.30
10384;DHT22;5238;43.508;4.980;2023-04-29T09:25:28;31.70;91.30
10384;DHT22;5238;43.508;4.980;2023-04-29T09:27:56;31.90;91.30
10384;DHT22;5238;43.508;4.980;2023-04-29T09:30:23;32.10;91.30
10384;DHT22;5238;43.508;4.980;2023-04-29T09:33:10;32.30;91.30
10384;DHT22;5238;43.508;4.980;2023-04-29T09:35:39;32.30;91.30
10384;DHT22;5238;43.508;4.980;2023-04-29T09:38:11;32.30;91.30
10384;DHT22;5238;43.508;4.980;2023-04-29T09:40:42;32.30;91.30
10384;DHT22;5238;43.508;4.980;2023-04-29T09:43:14;32.40;91.30
10384;DHT22;5238;43.508;4.980;2023-04-29T09:45:43;32.60;91.30
10384;DHT22;5238;43.508;4.980;2023-04-29T09:48:23;32.80;91.30
10384;DHT22;5238;43.508;4.980;2023-04-29T09:51:00;33.00;91.30
10384;DHT22;5238;43.508;4.980;2023-04-29T09:53:31;33.10;91.30
10384;DHT22;5238;43.508;4.980;2023-04-29T09:56:08;33.40;91.30
10384;DHT22;5238;43.508;4.980;2023-04-29T09:58:35;33.60;91.30
10384;DHT22;5238;43.508;4.980;2023-04-29T10:01:03;33.70;91.30
10384;DHT22;5238;43.508;4.980;2023-04-29T10:03:36;33.90;91.30
10384;DHT22;5238;43.508;4.980;2023-04-29T10:06:05;33.90;91.30
10384;DHT22;5238;43.508;4.980;2023-04-29T10:08:33;34.00;90.80
10384;DHT22;5238;43.508;4.980;2023-04-29T10:11:02;34.30;90.30
10384;DHT22;5238;43.508;4.980;2023-04-29T10:13:35;34.40;90.60
10384;DHT22;5238;43.508;4.980;2023-04-29T10:16:14;34.40;90.40
10384;DHT22;5238;43.508;4.980;2023-04-29T10:19:02;34.50;90.20
10384;DHT22;5238;43.508;4.980;2023-04-29T10:21:31;34.50;91.00
10384;DHT22;5238;43.508;4.980;2023-04-29T10:24:01;34.40;90.60
10384;DHT22;5238;43.508;4.980;2023-04-29T10:26:30;34.40;90.20
10384;DHT22;5238;43.508;4.980;2023-04-29T10:28:59;34.50;90.00
10384;DHT22;5238;43.508;4.980;2023-04-29T10:31:27;34.70;90.40
10384;DHT22;5238;43.508;4.980;2023-04-29T10:33:55;34.80;89.20
10384;DHT22;5238;43.508;4.980;2023-04-29T10:36:30;34.90;89.60
10384;DHT22;5238;43.508;4.980;2023-04-29T10:38:59;35.00;89.60
10384;DHT22;5238;43.508;4.980;2023-04-29T10:41:33;35.00;89.30
10384;DHT22;5238;43.508;4.980;2023-04-29T10:44:01;34.70;89.30
10384;DHT22;5238;43.508;4.980;2023-04-29T10:46:29;34.60;90.40
10384;DHT22;5238;43.508;4.980;2023-04-29T10:49:00;34.60;90.60
10384;DHT22;5238;43.508;4.980;2023-04-29T10:51:39;34.70;90.60
10384;DHT22;5238;43.508;4.980;2023-04-29T10:54:11;34.70;89.00
10384;DHT22;5238;43.508;4.980;2023-04-29T10:56:41;34.90;88.00
10384;DHT22;5238;43.508;4.980;2023-04-29T10:59:12;35.00;88.10
10384;DHT22;5238;43.508;4.980;2023-04-29T11:01:42;35.00;86.40
10384;DHT22;5238;43.508;4.980;2023-04-29T11:04:12;35.10;86.60
10384;DHT22;5238;43.508;4.980;2023-04-29T11:06:46;35.10;86.10
10384;DHT22;5238;43.508;4.980;2023-04-29T11:09:18;35.10;86.30
10384;DHT22;5238;43.508;4.980;2023-04-29T11:11:58;35.10;85.90
10384;DHT22;5238;43.508;4.980;2023-04-29T11:14:34;34.80;84.60
10384;DHT22;5238;43.508;4.980;2023-04-29T11:17:07;34.70;86.00
10384;DHT22;5238;43.508;4.980;2023-04-29T11:19:35;34.30;86.20
10384;DHT22;5238;43.508;4.980;2023-04-29T11:22:14;34.10;86.30
10384;DHT22;5238;43.508;4.980;2023-04-29T11:24:54;33.90;86.30
10384;DHT22;5238;43.508;4.980;2023-04-29T11:27:26;33.70;87.10
10384;DHT22;5238;43.508;4.980;2023-04-29T11:29:57;33.80;87.70
10384;DHT22;5238;43.508;4.980;2023-04-29T11:32:27;33.70;87.90
10384;DHT22;5238;43.508;4.980;2023-04-29T11:34:54;33.60;88.40
10384;DHT22;5238;43.508;4.980;2023-04-29T11:37:32;33.20;88.10
10384;DHT22;5238;43.508;4.980;2023-04-29T11:40:04;33.10;88.70
10384;DHT22;5238;43.508;4.980;2023-04-29T11:42:33;32.80;89.20
10384;DHT22;5238;43.508;4.980;2023-04-29T11:45:09;32.70;90.50
10384;DHT22;5238;43.508;4.980;2023-04-29T11:47:43;32.40;90.40
10384;DHT22;5238;43.508;4.980;2023-04-29T11:50:14;32.20;90.60
10384;DHT22;5238;43.508;4.980;2023-04-29T11:52:47;31.90;90.70
10384;DHT22;5238;43.508;4.980;2023-04-29T11:55:14;31.70;91.30
10384;DHT22;5238;43.508;4.980;2023-04-29T11:57:41;31.50;91.30
10384;DHT22;5238;43.508;4.980;2023-04-29T12:00:09;31.20;91.30
10384;DHT22;5238;43.508;4.980;2023-04-29T12:02:37;31.10;91.30
10384;DHT22;5238;43.508;4.980;2023-04-29T12:05:05;31.20;91.30
10384;DHT22;5238;43.508;4.980;2023-04-29T12:07:39;31.20;91.30
10384;DHT22;5238;43.508;4.980;2023-04-29T12:10:15;31.20;91.30
10384;DHT22;5238;43.508;4.980;2023-04-29T12:12:43;31.30;91.30
10384;DHT22;5238;43.508;4.980;2023-04-29T12:18:39;31.20;91.30
10384;DHT22;5238;43.508;4.980;2023-04-29T12:21:06;31.10;91.30
10384;DHT22;5238;43.508;4.980;2023-04-29T12:23:35;31.00;91.30
10384;DHT22;5238;43.508;4.980;2023-04-29T12:26:09;31.00;91.30
10384;DHT22;5238;43.508;4.980;2023-04-29T12:28:42;31.00;91.30
10384;DHT22;5238;43.508;4.980;2023-04-29T12:31:09;30.90;91.30
10384;DHT22;5238;43.508;4.980;2023-04-29T12:33:41;30.90;91.30
10384;DHT22;5238;43.508;4.980;2023-04-29T12:36:15;30.70;91.30
10384;DHT22;5238;43.508;4.980;2023-04-29T12:38:47;30.60;91.30
10384;DHT22;5238;43.508;4.980;2023-04-29T12:41:35;30.40;91.30
10384;DHT22;5238;43.508;4.980;2023-04-29T12:44:05;30.20;91.30
10384;DHT22;5238;43.508;4.980;2023-04-29T12:46:35;30.10;91.30
10384;DHT22;5238;43.508;4.980;2023-04-29T12:49:03;29.90;91.30
10384;DHT22;5238;43.508;4.980;2023-04-29T12:51:33;29.80;91.30
10384;DHT22;5238;43.508;4.980;2023-04-29T12:54:03;29.60;91.30
10384;DHT22;5238;43.508;4.980;2023-04-29T12:56:33;29.40;91.30
10384;DHT22;5238;43.508;4.980;2023-04-29T12:59:05;29.30;91.30
10384;DHT22;5238;43.508;4.980;2023-04-29T13:01:35;29.20;91.30
10384;DHT22;5238;43.508;4.980;2023-04-29T13:04:02;29.10;91.30
10384;DHT22;5238;43.508;4.980;2023-04-29T13:06:30;29.00;91.30
10384;DHT22;5238;43.508;4.980;2023-04-29T13:08:57;29.00;91.30
10384;DHT22;5238;43.508;4.980;2023-04-29T13:11:26;29.00;91.30
10384;DHT22;5238;43.508;4.980;2023-04-29T13:13:55;29.00;91.30
10384;DHT22;5238;43.508;4.980;2023-04-29T13:16:23;29.00;91.30
10384;DHT22;5238;43.508;4.980;2023-04-29T13:18:50;28.90;91.30
10384;DHT22;5238;43.508;4.980;2023-04-29T13:21:17;28.80;91.30
10384;DHT22;5238;43.508;4.980;2023-04-29T13:23:45;28.70;91.30
10384;DHT22;5238;43.508;4.980;2023-04-29T13:26:17;28.60;91.30
10384;DHT22;5238;43.508;4.980;2023-04-29T13:28:49;28.50;91.30
10384;DHT22;5238;43.508;4.980;2023-04-29T13:31:19;28.40;91.30
10384;DHT22;5238;43.508;4.980;2023-04-29T13:33:46;28.30;91.30
10384;DHT22;5238;43.508;4.980;2023-04-29T13:36:15;28.30;91.30
10384;DHT22;5238;43.508;4.980;2023-04-29T13:38:42;28.30;91.30
10384;DHT22;5238;43.508;4.980;2023-04-29T13:41:10;28.20;91.30
10384;DHT22;5238;43.508;4.980;2023-04-29T13:43:37;28.10;91.30
10384;DHT22;5238;43.508;4.980;2023-04-29T13:46:05;28.10;91.30
10384;DHT22;5238;43.508;4.980;2023-04-29T13:48:34;28.00;91.30
10384;DHT22;5238;43.508;4.980;2023-04-29T13:51:03;28.00;91.30
10384;DHT22;5238;43.508;4.980;2023-04-29T13:53:30;28.00;91.30
10384;DHT22;5238;43.508;4.980;2023-04-29T13:56:00;27.90;91.30
10384;DHT22;5238;43.508;4.980;2023-04-29T13:58:27;27.90;91.30
10384;DHT22;5238;43.508;4.980;2023-04-29T14:00:54;27.90;91.30
10384;DHT22;5238;43.508;4.980;2023-04-29T14:03:21;27.90;91.30
10384;DHT22;5238;43.508;4.980;2023-04-29T14:05:50;27.90;91.30
10384;DHT22;5238;43.508;4.980;2023-04-29T14:08:18;27.90;91.30
10384;DHT22;5238;43.508;4.980;2023-04-29T14:10:47;27.80;91.30
10384;DHT22;5238;43.508;4.980;2023-04-29T14:13:15;27.80;91.30
10384;DHT22;5238;43.508;4.980;2023-04-29T14:15:45;27.80;91.30
10384;DHT22;5238;43.508;4.980;2023-04-29T14:18:12;27.80;91.30
10384;DHT22;5238;43.508;4.980;2023-04-29T14:21:05;27.80;91.30
10384;DHT22;5238;43.508;4.980;2023-04-29T14:23:34;27.80;91.30
10384;DHT22;5238;43.508;4.980;2023-04-29T14:26:04;27.80;91.30
10384;DHT22;5238;43.508;4.980;2023-04-29T14:28:32;27.80;91.30
10384;DHT22;5238;43.508;4.980;2023-04-29T14:30:59;27.90;91.30
10384;DHT22;5238;43.508;4.980;2023-04-29T14:33:26;27.90;91.30
10384;DHT22;5238;43.508;4.980;2023-04-29T14:35:53;27.90;91.30
10384;DHT22;5238;43.508;4.980;2023-04-29T14:38:21;27.90;91.30
10384;DHT22;5238;43.508;4.980;2023-04-29T14:40:50;28.00;91.30
10384;DHT22;5238;43.508;4.980;2023-04-29T14:43:17;28.00;91.30
10384;DHT22;5238;43.508;4.980;2023-04-29T14:45:44;28.10;91.30
10384;DHT22;5238;43.508;4.980;2023-04-29T14:48:11;28.20;91.30
10384;DHT22;5238;43.508;4.980;2023-04-29T14:50:38;28.30;91.30
10384;DHT22;5238;43.508;4.980;2023-04-29T14:53:06;28.30;91.30
10384;DHT22;5238;43.508;4.980;2023-04-29T14:55:50;28.40;91.30
10384;DHT22;5238;43.508;4.980;2023-04-29T14:58:17;28.40;91.30
10384;DHT22;5238;43.508;4.980;2023-04-29T15:00:46;28.50;91.30
10384;DHT22;5238;43.508;4.980;2023-04-29T15:03:15;28.50;91.30
10384;DHT22;5238;43.508;4.980;2023-04-29T15:05:42;28.50;91.30
10384;DHT22;5238;43.508;4.980;2023-04-29T15:08:10;28.50;91.30
10384;DHT22;5238;43.508;4.980;2023-04-29T15:10:37;28.50;91.30
10384;DHT22;5238;43.508;4.980;2023-04-29T15:13:08;28.50;91.30
10384;DHT22;5238;43.508;4.980;2023-04-29T15:15:36;28.50;91.30
10384;DHT22;5238;43.508;4.980;2023-04-29T15:18:04;28.50;91.30
10384;DHT22;5238;43.508;4.980;2023-04-29T15:20:34;28.50;91.30
10384;DHT22;5238;43.508;4.980;2023-04-29T15:23:04;28.50;91.30
10384;DHT22;5238;43.508;4.980;2023-04-29T15:25:36;28.40;91.30
10384;DHT22;5238;43.508;4.980;2023-04-29T15:28:03;28.40;91.30
10384;DHT22;5238;43.508;4.980;2023-04-29T15:30:32;28.40;91.30
10384;DHT22;5238;43.508;4.980;2023-04-29T15:33:00;28.40;91.30
10384;DHT22;5238;43.508;4.980;2023-04-29T15:35:27;28.40;91.30
10384;DHT22;5238;43.508;4.980;2023-04-29T15:37:55;28.30;91.30
10384;DHT22;5238;43.508;4.980;2023-04-29T15:40:28;28.10;91.30
10384;DHT22;5238;43.508;4.980;2023-04-29T15:42:56;27.90;91.30
10384;DHT22;5238;43.508;4.980;2023-04-29T15:45:27;27.70;91.30
10384;DHT22;5238;43.508;4.980;2023-04-29T15:47:56;27.40;91.30
10384;DHT22;5238;43.508;4.980;2023-04-29T15:50:23;27.10;91.30
10384;DHT22;5238;43.508;4.980;2023-04-29T15:52:55;26.80;91.30
10384;DHT22;5238;43.508;4.980;2023-04-29T15:55:23;26.60;91.30
10384;DHT22;5238;43.508;4.980;2023-04-29T15:57:50;26.40;91.30
10384;DHT22;5238;43.508;4.980;2023-04-29T16:00:22;26.30;91.30
10384;DHT22;5238;43.508;4.980;2023-04-29T16:03:02;26.10;91.30
10384;DHT22;5238;43.508;4.980;2023-04-29T16:05:33;25.80;91.30